Haywood NORAM Interval Free | Zone4.ca

Haywood NORAM Interval Free   

Date: Dec 7, 2013
Official  Results
Location: Vernon, BC
Host Club: Sovereign Lake

Jury
Technical Delegate:  Ken Hewitt 
Chief of Competition:  Sharon Clarke 
CCC Director  Dave Dyer 
 TD Assistant  Ian Sibbald 
    
Obs. Time: 12 
Wind Vel:  8km/hr Wind Dir: 338NNW
Air Temp: -18.1 Snow Temp: -9.6
Weather: clear Snow Cond: hard packed

Open Men 15 km. Free    
PL Bib Name Cat Rnk CCC FIS DOB Nat Club Team Time Diff
1 102 Brian Gregg Senior Men 1/46 16774 3530177 1984 USA Gregg Madshus 0:41:03.3  
2 100 Matt Liebsch Senior Men 2/46 18845 3530348 1983 USA BortonVolvoXCU TeamStrongHeart 0:41:06.7 +3.3
3 107 Graham Nishikawa Senior Men 3/46 12673 3100034 1983 CAN Whitehorse NST 0:41:07.8 +4.5
4 96 Patrick Stewart-Jones Senior Men 4/46 14471 3100222  1991 CAN Nakkertok AWCA 0:41:18.4 +15.0
5 104 Kevin Sandau Senior Men 5/46 13504 3100128 1988 CAN Foothills Nordic AWCA-NST 0:41:35.8 +32.5
6 101 Christopher Hamilton Senior Men 6/46 13690 3100186 1989 CAN Big Thunder AWCA 0:42:03.1 +59.7
7 88 David Palmer Senior Men 7/46 18506 3100292 1993 CAN Black Jack Black jack 0:42:27.0 +1:23.7
8 87 Dudley Coulter Senior Men 8/46 18443   1990 CAN Big Thunder   0:42:48.4 +1:45.0
9 99 Knute Johnsgaard Senior Men 9/46 21623 3100217 1992 CAN Whitehorse Yukon Elite 0:43:00.9 +1:57.5
10 94 Andy Shields Senior Men 10/46 14504 3100232 1991 CAN Lappe Nordic NDC T  Bay 0:43:04.9 +2:01.5
11 80 Scott Hill Junior Men 1/41 19642 3100296 1994 CAN Hardwood NDC T Bay 0:43:10.7 +2:07.4
12 89 Patrick Caldwell Junior Men 2/41 26808 3530629 1994 USA Dartmouth   0:43:18.4 +2:15.0
13 92 Ezekiel Williams Senior Men 11/46 14195 3100263 1993 CAN Nakkertok AWCA 0:43:19.8 +2:16.5
14 83 Jack Carlyle Senior Men 12/46 19782 3100266NA 1993 CAN Soo Finnish NDC T  Bay 0:43:23.3 +2:20.0
15 103 Tad Elliott Senior Men 13/46 19190 3530492 1988 USA HomeGrown Team HomeGrown 0:43:33.8 +2:30.5
16 93 Geoffrey Richards Senior Men 14/46 18425 3100260 1992 CAN Black Jack CVTC 0:43:35.2 +2:31.9
17 106 Michael Somppi Senior Men 15/46 13526 3100160 1988 CAN Lappe Nordic AWCA/NST 0:43:41.2 +2:37.9
18 105 Graeme Killick Senior Men 16/46 14133 3100175 1989 CAN Ptarmigan   0:43:46.6 +2:43.3
19 95 Raphaël Couturier Senior Men 17/46 18415 3100185 1993 CAN Skibec CNEPH-NST 0:43:48.1 +2:44.8
20 82 Sebastien  Townsend Open Men 1/1 18484 3100262 1992 CAN Nakkertok AWCA 0:43:55.5 +2:52.1
21 91 Bob Thompson Senior Men 18/46 14312 3100227 1991 CAN Hardwood NDC T Bay 0:43:59.8 +2:56.5
22 84 Sébastien Dandurand Senior Men 19/46 28197   1993 CAN Canmore CVTC 0:44:28.6 +3:25.3
23 86 Colin Ferrie Senior Men 20/46 19558 3100293 1993 CAN Kimberley Black Jack 0:44:29.9 +3:26.5
24 44 Carsen Campbell Junior Men 3/41 31015   1994 CAN Canmore   0:44:33.0 +3:29.6
25 97 Russell Kennedy Senior Men 21/46 25625 3100268 1991 CAN Canmore AWCA 0:44:44.1 +3:40.8
26 68 Colin Foley Junior Men 4/41 23746   1995 CAN Nakkertok-ON CVTC 0:45:03.0 +3:59.6
27 78 Julien Locke Senior Men 22/46 21432 3100248 1993 CAN Black Jack Black Jack 0:45:06.6 +4:03.3
28 66 Andrew Brisbin Senior Men 23/46 14594 3100300NA 1990 CAN RMR RMR 0:45:14.4 +4:11.0
29 72 Martin Schrama Senior Men 24/46 18392 3100199 1992 CAN Whistler Nordic CVTC 0:45:20.2 +4:16.8
30 5 Jan Ketterson Junior Men 5/41   3530767 1994 USA Dartmouth Dartmouth ST 0:45:21.3 +4:18.0
31 30 David Sinclair Senior Men 25/46 22927 3530561NA 1992 USA Dartmouth   0:45:27.4 +4:24.1
32 77 Matthew Saurette Junior Men 6/41 19576 3100271 1994 CAN RMR   0:45:57.3 +4:54.0
33 74 Benjamin Wilkinson-Zan Junior Men 7/41 21479 3100325 1994 CAN Nakkertok-ON NDC T Bay 0:46:03.6 +5:00.3
34 81 Yannick Lapierre Senior Men 26/46 14579 3100202 1992 CAN Nakkertok AWCA 0:46:08.2 +5:04.8
35 65 Erik Fagerstrom Senior Men 27/46 24413 3530591NA 1990 USA Dartmouth   0:46:20.6 +5:17.3
36 12 Matthew Hudec Junior Men 8/41 31791   1994 CAN Biathlon Alberta   0:46:35.5 +5:32.1
37 70 Benjamin Osorio Senior Men 28/46 22606   1993 CAN Arrowhead CVTC 0:46:38.8 +5:35.5
38 59 Carrington Pomeroy Senior Men 29/46 19604 3100290NA 1993 CAN Nakkertok Carleton U 0:47:22.4 +6:19.1
39 75 Evan Palmer Charrette Junior Men 9/41 22598 3100283 1994 CAN Lappe Nordic NDC T Bay 0:47:44.4 +6:41.1
40 35 Andrew Avis Junior Men 10/41 28641   1995 CAN Highland CVTC 0:47:49.4 +6:46.1
41 3 Oscar Friedman Junior Men 11/41     1994 USA Dartmouth   0:47:56.6 +6:53.3
42 25 Andrew Nadler Junior Men 12/41 24420 3530607 1994 USA Dartmouth Dartmouth ST 0:47:59.6 +6:56.3
43 71 Alexis Dumas Junior Men 13/41 23580 3100321 1995 CAN Skibec QCST 0:48:01.6 +6:58.3
44 7 Cameron Woodworth Senior Men 30/46     1991 USA Dartmouth   0:48:04.1 +7:00.8
45 58 Nick Monette Senior Men 31/46 19580 3100252 1993 CAN Hardwood NDC T Bay 0:48:15.8 +7:12.5
46 90 Alex Mahoney Senior Men 32/46 14608 3100250 1992 CAN RMR AWCA 0:48:37.5 +7:34.1
47 4 Brett Davie Junior Men 14/41     1994 CAN BATC Ontario BATC 0:48:41.0 +7:37.6
48 18 Scott Fraser Senior Men 33/46 18509   1993 CAN Canmore SASK 0:48:45.8 +7:42.5
49 46 Aidan Millar Junior Men 15/41 25582   1995 CAN Canmore AST 0:48:52.5 +7:49.1
50 61 Gavin Shields Junior Men 16/41 19224   1994 CAN Lappe Nordic OST 0:48:59.7 +7:56.3
51 79 Dominique Moncion-Groulx Senior Men 34/46 19561 3100251 1993 CAN Nakkertok QCST 0:49:04.7 +8:01.3
52 2 Zach Goldberg Junior Men 17/41     1994 USA Dartmouth   0:49:12.5 +8:09.1
53 56 Paul Dupuis Senior Men 35/46 14604 3100240 1993 CAN Canmore CVTC 0:49:21.8 +8:18.5
54 51 Angus Foster Junior Men 18/41 23596 3100242  1995 CAN Big Thunder   0:49:30.2 +8:26.8
55 54 Edouard Reed-Métayer Junior Men 19/41 25622 3100303 1996 CAN Skibec   0:49:39.7 +8:36.3
56 50 Peter Hicks Junior Men 20/41 25580   1996 CAN Canmore AST 0:49:43.3 +8:40.0
57 34 Torin Tucker Senior Men 36/46 25560   1993 USA Dartmouth   0:50:07.8 +9:04.5
58 53 Antoine Briand Junior Men 21/41 23624 3100314 1995 CAN Skibec   0:50:11.8 +9:08.5
59 42 Liam Patterson Junior Men 22/41 14612 3100338 1995 CAN Big Thunder CVTC 0:50:12.6 +9:09.2
60 69 Julien Lamoureux Junior Men 23/41 21454 3100301 1994 CAN Montériski QCST 0:50:28.3 +9:25.0
61 13 Sam Merrens Junior Men 24/41 28616 3530675NA 1995 USA Dartmouth DartmouthST 0:50:29.9 +9:26.6
62 28 Willard Andal Junior Men 25/41 21612   1994 CAN Caledonia   0:50:34.4 +9:31.1
63 43 Sam Morris Junior Men 26/41 23638 3100317 1995 CAN Hollyburn CVTC 0:50:39.4 +9:36.1
64 32 Jimmy Gunka Senior Men 37/46 14417 3100201 1991 CAN Big Thunder   0:50:41.7 +9:38.3
65 73 Conor Thompson Junior Men 27/41 22614 3100302 1994 CAN Montériski QCST 0:50:42.2 +9:38.8
66 14 Beau Thompson Senior Men 38/46 21482   1989 CAN RMR   0:50:44.3 +9:41.0
67 36 Isaac Alexander-Cook Junior Men 28/41 27368   1995 CAN Nakkertok-ON   0:51:04.2 +10:00.8
68 60 Victor Hopper Junior Men 29/41 21412 3100245 1994 CAN Big Thunder OST 0:51:06.0 +10:02.7
69 62 Nicholas Pigeon Junior Men 30/41 24518 3100298 1995 CAN Skinouk   0:51:06.8 +10:03.5
70 17 Reid Hosford Senior Men 39/46 13345   1987 CAN Fast Trax   0:51:48.1 +10:44.7
71 47 Maxime Raymond Junior Men 31/41 25618 3100320 1996 CAN Skibec   0:52:15.1 +11:11.7
72 48 Hamish McEwen Junior Men 32/41 28615 3530669 1995 USA Dartmouth   0:52:18.4 +11:15.1
73 16 Wapoose Urton Senior Men 40/46 13171   1989 CAN La Ronge   0:53:17.4 +12:14.1
74 1 Thomas Rabon Junior Men 33/41     1994 USA Dartmouth Dartmouth ST 0:53:24.1 +12:20.7
75 52 Thomas Reed-Métayer Junior Men 34/41 21601 3100304 1994 CAN Skibec   0:53:30.5 +12:27.2
76 19 Gary di Silvestri Senior Men 41/46 31530 3960200 1967 DM Dominica Team Dominica 0:53:30.9 +12:27.6
77 55 Kurt Behnsen Senior Men 42/46 18881   1992 CAN Telemark   0:54:00.7 +12:57.3
78 15 Silas Talbot Senior Men 43/46 26805 3530626NA 1992 USA Dartmouth   0:54:01.6 +12:58.2
79 49 David Askwith Junior Men 35/41 25804   1995 CAN Georgian Bay OST 0:54:09.0 +13:05.7
80 29 Fergus Foster Junior Men 36/41 25591 3100243  1997 CAN Big Thunder   0:54:14.0 +13:10.7
80 21 Jack Cook Senior Men 44/46 2241 1199114NA 1967 CAN Fast Trax   0:54:14.0 +13:10.7
82 40 Konrad Kuhne Junior Men 37/41 23589   1996 CAN Menihek NFLABST 0:54:25.4 +13:22.1
83 23 Jan Rossiter Senior Men 45/46 25634 3270008 1987 CAN Chelsea Masters Ireland 0:55:35.4 +14:32.1
84 38 Eric Byram Junior Men 38/41 23720 3100311 1996 CAN Canmore   0:55:48.9 +14:45.6
85 31 Graham Perry Junior Men 39/41 25760   1995 CAN Mono Nordic   0:56:00.8 +14:57.5
86 22 Félix-Antoine Vézina Junior Men 40/41 27357   1997 CAN Skibec   0:56:02.4 +14:59.1
87 9 Todd Anderson Senior Men 46/46     1992 USA Dartmouth   0:57:43.8 +16:40.5
88 20 Quinn Wildi Junior Men 41/41 23609   1995 CAN Hollyburn   1:02:47.4 +21:44.0
DNF 26 Arthur Roots Junior Men * 22595   1994 CAN Caledonia   *** ***
DNF 27 Pearce Hanna Junior Men * 25684   1996 CAN Edmonton   *** ***
DNF 57 Olivier Hamel Junior Men * 25623 3100316 1996 CAN Skibec   *** ***
DNF 63 Kieran Baird Senior Men * 14542   1990 CAN RMR   *** ***
DNF 64 Kai Lukowiak Senior Men * 14564 3421924 1991 CAN Foothills Nordic   *** ***
DNF 67 Alexis Morin Senior Men * 24486 3100297NA 1993 CAN Skibec QCST *** ***
DNS 6 Magnus Bigelow Senior Men *     1993 USA Dartmouth   *** ***
DNS 8 John Caldwell Senior Men *     1992 USA Dartmouth   *** ***
DNS 10 Bob Burden Senior Men *     1960 CAN Edmonton   *** ***
DNS 11 John Davina Senior Men *     1950 CAN Kelowna   *** ***
DNS 24 Jasper Mackenzie Senior Men * 31011   1992 CAN Telemark   *** ***
DNS 33 Kai Skinstad Senior Men * 13297   1988 CAN RMR RMR *** ***
DNS 37 Matt Strum Junior Men * 21420   1995 CAN Canmore ABST *** ***
DNS 39 Stuart Harden Junior Men * 21549   1994 CAN RMR   *** ***
DNS 41 Simon Beaudet Senior Men * 12901 3100063 1985 CAN Skibec   *** ***
DNS 45 Anders Cowper Junior Men * 25607 3100329 1996 CAN RMR RMR *** ***
DNS 76 Simon Lapointe Senior Men * 19621 3100267 1993 CAN Skinouk   *** ***
DNS 85 Alexis Turgeon Senior Men * 19686 3100234 1993 CAN Skinouk CNEPH *** ***
DNS 98 Colin Abbott Senior Men * 14227 3100191 1990 CAN Whitehorse Yukon Elite *** ***

Open Women 10 km. Free    
PL Bib Name Cat Rnk CCC FIS DOB Nat Club Team Time Diff
1 180 Heidi Widmer Senior Women 1/24 14175 3105114 1991 CAN Foothills Nordic AWCA-NST 0:33:14.7  
2 183 Amanda Ammar Senior Women 2/24 12889 3105023 1986 CAN Canmore Team Ninja 0:33:41.1 +26.3
3 182 Zoe Roy Senior Women 3/24 13631 3105090 1987 CAN Foothills Nordic Team Ninja 0:33:54.3 +39.6
4 129 Britany Webster Senior Women 4/24 14219 3105097         0:34:07.6 +52.8
5 184 Emily Nishikawa Senior Women 5/24 13646 3105095 1989 CAN Whitehorse AWCA-NST 0:34:54.2 +1:39.5
6 170 Katherine Stewart-Jones Junior Women 1/32 23772 3105214 1995 CAN Nakkertok   0:35:27.1 +2:12.4
7 178 Frédérique Vézina Junior Women 2/32 19234 3105157 1994 CAN M.S.A. CNEPH 0:35:32.2 +2:17.5
8 176 Cendrine Browne Senior Women 6/24 24461 3105190 1993 CAN Laurentides CNEPH-NST 0:35:54.5 +2:39.8
9 162 Olivia Bouffard Nesbitt Senior Women 7/24 19676 3105179 1992 CAN Laurentides RMR 0:36:16.4 +3:01.6
10 175 Annie Hart Senior Women 8/24 24436 3535468 1992 USA Dartmouth Dartmouth ST 0:36:24.3 +3:09.5
11 181 Anne-Marie Comeau Junior Women 3/32 23595 3105184 1996 CAN CNMSA CNEPH 0:36:25.8 +3:11.0
12 171 Dahria Beatty Junior Women 4/32 22610 3105146 1994 CAN Whitehorse AWCA 0:36:34.2 +3:19.5
13 165 Jennifer Jackson Junior Women 5/32 21582 3105217 1995 CAN Hardwood NDC T  Bay 0:36:37.5 +3:22.8
14 169 Marlis Kromm Senior Women 9/24 14211 3105093 1990 CAN Foothills Nordic AWCA 0:36:47.5 +3:32.8
15 174 Alysson Marshall Senior Women 10/24 13482 3105084 1988 CAN Larch Hills AWCA-NST 0:36:54.3 +3:39.5
16 159 Emily Hannah Junior Women 6/32 26309 3535514 1994 USA Dartmouth Dartmouth ST 0:36:54.6 +3:39.9
17 179 Alana Thomas Senior Women 11/24 13353 3105089 1988 CAN Hardwood   0:37:28.5 +4:13.8
18 164 Sheila Kealey Senior Women 12/24 3485 3105048 1964 CAN Ottawa XC Ottawa 0:37:30.6 +4:15.9
19 160 Sarah Beaudry Junior Women 7/32 21414   1994 CAN Caledonia   0:37:34.3 +4:19.6
20 163 Maya Macisaac-Jones Junior Women 8/32 20511 3105180 1995 CAN RMR CNEPH 0:38:14.1 +4:59.3
21 158 Lauren Brookes Senior Women 13/24 25727   1991 CAN RMR RMR 0:38:29.3 +5:14.6
22 153 Isabella Howden Junior Women 9/32 27493 3105221 1996 CAN Hardwood   0:38:34.7 +5:20.0
23 161 Maja Zimmermann Senior Women 14/24 14589   1990 CAN RMR RMR 0:38:52.1 +5:37.3
24 156 Sadie White Junior Women 10/32 23767 3105182 1996 CAN Big Thunder OST 0:38:57.1 +5:42.3
25 166 Alannah Maclean Senior Women 15/24 19646 3105169 1993 CAN Walden Nordic NDC T  Bay 0:38:59.4 +5:44.6
26 168 Sophie Carrier-Laforte Junior Women 11/32 24472 3105194 1995 CAN Skinouk QCST 0:39:09.4 +5:54.6
27 154 Mia Serratore Junior Women 12/32 23769 3105174 1996 CAN Big Thunder OST 0:39:25.8 +6:11.1
28 126 Nancy Burden Senior Women 16/24     1961 CAN Edmonton   0:39:26.3 +6:11.6
29 150 Gabrielle Lemire Junior Women 13/32 21444 3105177 1994 CAN Skibec QCST 0:39:52.6 +6:37.8
30 142 Holly Brown Junior Women 14/32 28645   1995 CAN Nakkertok-ON   0:39:54.4 +6:39.6
31 149 Lauren Turcot Junior Women 15/32 27067   1997 CAN Canmore AST 0:40:25.9 +7:11.1
32 127 Julia Harrison Senior Women 17/24     1992 USA Dartmouth   0:40:29.0 +7:14.3
33 151 Ember Large Junior Women 16/32 23731 3105185 1995 CAN Edmonton   0:40:48.9 +7:34.1
34 134 Isabel Caldwell Senior Women 18/24     1992 USA Dartmouth Dartmouth ST 0:40:49.4 +7:34.6
35 143 Emmy Phillips Junior Women 17/32 27071   1997 CAN Canmore AST 0:40:55.8 +7:41.1
36 125 Molly Siegel Junior Women 18/32     1994 USA Dartmouth   0:40:59.5 +7:44.8
37 148 Shelby Dickey Junior Women 19/32 21473   1994 CAN Highland   0:41:27.3 +8:12.6
38 132 Carly Wynn Senior Women 19/24     1992 USA Dartmouth Dartmouth ST 0:41:31.1 +8:16.3
39 120 Chloé Selerier Junior Women 20/32     1995 CAN Biathlon Alberta   0:42:18.8 +9:04.1
40 139 Nicole Perrin Junior Women 21/32 21025   1994 CAN Black Jack BlackJack 0:42:30.1 +9:15.3
41 140 Alexandra Slobodian Junior Women 22/32 23717   1995 CAN Nakkertok-ON OST 0:42:41.4 +9:26.7
42 123 Jessa Fogel Junior Women 23/32     1995 USA Dartmouth   0:43:26.7 +10:12.0
43 146 Kirsten Gillett Junior Women 24/32 25706   1996 CAN Canmore   0:43:32.6 +10:17.8
44 128 Elisabeth Seyferth Senior Women 20/24     1992 USA Dartmouth   0:43:57.5 +10:42.7
45 130 Natalie Flowers Senior Women 21/24     1991 USA Dartmouth Dartmouth ST 0:44:00.3 +10:45.6
46 136 A. MorroneDiSilvestri Senior Women 22/24 31531 3960250 1965 DM Dominica Team Dominica 0:44:13.5 +10:58.7
47 124 Margaret Lane Junior Women 25/32     1995 CHE Dartmouth   0:44:25.0 +11:10.2
48 157 Andrée-Anne Théberge Junior Women 26/32 23610 3105205 1995 CAN SKIBEC   0:44:26.4 +11:11.7
49 133 Bryana Van Leeuwen Junior Women 27/32 31039   1994 CAN Big Thunder OST 0:44:31.0 +11:16.2
50 155 Alexandra Myshak-Davis Junior Women 28/32 21506   1995 CAN Telemark BCST 0:44:57.4 +11:42.7
51 122 Keley Shagan Junior Women 29/32     1995 USA Dartmouth Dartmouth ST 0:45:13.4 +11:58.7
52 141 Natasha Harvey Junior Women 30/32 23739   1995 CAN Canmore   0:45:16.8 +12:02.1
53 144 Emma Camicioli Senior Women 23/24 25732 3105206 1993 CAN Edmonton   0:45:43.4 +12:28.7
54 121 Charlotte Gross Junior Women 31/32     1994 USA Dartmouth   0:46:36.6 +13:21.8
55 137 Ilona Gyapay Senior Women 24/24 21565   1992 CAN Camrose Augustana 0:50:07.5 +16:52.7
56 135 Silken Kleer Junior Women 32/32 23604   1995 CAN Hollyburn UBC 1:04:09.1 +30:54.4
DNF 173 Erin Tribe Senior Women * 13652 3105145 1989 CAN Hardwood NDC T  Bay *** ***
DNS 131 Barbara Turner Senior Women *     1965 CAN CMBC Canadian Masters *** ***
DNS 138 Morgan Rogers Junior Women * 27068   1997 CAN Canmore   *** ***
DNS 145 Danielle Vrielink Junior Women * 27093   1995 CAN RMR   *** ***
DNS 147 Karen Messenger Senior Women * 13060 3105215 1979 CAN RMR RMR *** ***
DNS 152 Emma Lunder Senior Women * 30217   1991 CAN RMR RMR *** ***
DNS 167 Andrea Dupont Senior Women * 5573 3105105 1980 CAN RMR RMR *** ***
DNS 172 Corey Stock Junior Women * 24830 3535455 1994 USA Dartmouth Dartmouth ST *** ***
DNS 177 Mary O'Connell Junior Women * 28112 3535535 1994 USA Dartmouth Dartmouth ST *** ***


Results are posted through an automated system by licenced clubs. For inquires about result corrections please contact the race organizer.

Copyright 2017 - Zone4 Systems zone4.ca       Privacy Policy     Delivery/Refund Policy     Terms of Service    Contact Zone4